Time;durP1;ratioP1;P1;durP2;ratioP2;P2;SDS_P1;SDS_P2;PMS_P1;PMS_P2;Temp;Humidity;BMP_temperature;BMP_pressure;BME280_temperature;BME280_humidity;BME280_pressure;Samples;Min_cycle;Max_cycle;Signal;HPM_P1;HPM_P2
2022/08/03 00:01:25;;;;;;;9.23;3.00;;;19.30;99.90;;;;;;5086709;28;20049;-87
2022/08/03 00:03:51;;;;;;;3.35;2.13;;;19.20;99.90;;;;;;5067561;28;20111;-85
2022/08/03 00:06:17;;;;;;;7.85;2.17;;;19.00;99.90;;;;;;5053964;28;20132;-84
2022/08/03 00:08:42;;;;;;;8.98;1.92;;;19.00;99.90;;;;;;5085651;28;20386;-86
2022/08/03 00:11:08;;;;;;;8.32;3.60;;;19.00;99.90;;;;;;5086357;28;20059;-85
2022/08/03 00:13:34;;;;;;;16.80;4.20;;;19.30;99.90;;;;;;5085605;28;20410;-85
2022/08/03 00:16:00;;;;;;;7.05;2.55;;;19.20;99.90;;;;;;5065364;28;20131;-83
2022/08/03 00:18:25;;;;;;;7.80;2.45;;;19.20;99.90;;;;;;5071097;28;20119;-86
2022/08/03 00:20:51;;;;;;;6.20;2.53;;;19.00;99.90;;;;;;5064691;28;20090;-84
2022/08/03 00:23:17;;;;;;;4.88;2.25;;;19.20;99.90;;;;;;5076550;28;20082;-84
2022/08/03 00:25:42;;;;;;;10.80;2.80;;;19.20;99.90;;;;;;5065380;28;20283;-85
2022/08/03 00:28:08;;;;;;;6.63;2.65;;;19.00;99.90;;;;;;5064624;28;20593;-84
2022/08/03 00:30:35;;;;;;;11.60;2.75;;;19.10;99.90;;;;;;5085928;28;20036;-85
2022/08/03 00:33:01;;;;;;;3.78;2.20;;;19.10;99.90;;;;;;5085617;28;20120;-86
2022/08/03 00:35:28;;;;;;;5.35;2.78;;;19.00;99.90;;;;;;5087434;28;20130;-84
2022/08/03 00:37:53;;;;;;;8.90;2.65;;;19.00;99.90;;;;;;5066757;28;20451;-86
2022/08/03 00:40:19;;;;;;;9.23;3.00;;;19.00;99.90;;;;;;5087613;28;20039;-82
2022/08/03 00:42:56;;;;;;;12.63;3.75;;;19.20;99.90;;;;;;5085483;28;20093;-86
2022/08/03 00:45:25;;;;;;;14.82;3.90;;;18.80;99.90;;;;;;5085475;28;20875;-84
2022/08/03 00:47:52;;;;;;;6.35;2.28;;;19.00;99.90;;;;;;5065674;28;20040;-86
2022/08/03 00:50:19;;;;;;;6.50;2.58;;;18.80;99.90;;;;;;5067906;28;20089;-86
2022/08/03 00:52:45;;;;;;;6.28;2.55;;;18.80;99.90;;;;;;5082067;28;20075;-85
2022/08/03 00:55:11;;;;;;;7.30;2.63;;;19.00;99.90;;;;;;5049922;28;20032;-82
2022/08/03 00:57:37;;;;;;;10.65;3.22;;;19.00;99.90;;;;;;5066219;28;20093;-85
2022/08/03 01:00:08;;;;;;;13.55;3.25;;;19.00;99.90;;;;;;5086898;28;20028;-85
2022/08/03 01:02:33;;;;;;;9.43;2.78;;;18.70;99.90;;;;;;5066543;28;20119;-84
2022/08/03 01:04:59;;;;;;;4.63;2.10;;;18.80;99.90;;;;;;5050568;28;20040;-86
2022/08/03 01:07:37;;;;;;;6.35;2.08;;;18.90;99.90;;;;;;5037112;28;20036;-84
2022/08/03 01:10:10;;;;;;;6.88;2.58;;;18.80;99.90;;;;;;5084025;28;20628;-84
2022/08/03 01:13:01;;;;;;;7.60;3.58;;;18.90;99.90;;;;;;5076025;28;20044;-82
2022/08/03 01:15:59;;;;;;;8.10;2.78;;;18.90;99.90;;;;;;5087919;28;20569;-86
2022/08/03 01:18:41;;;;;;;7.55;2.00;;;19.00;99.90;;;;;;5046897;28;20040;-84
2022/08/03 01:21:15;;;;;;;2.97;1.92;;;18.80;99.90;;;;;;5059903;28;20112;-83
2022/08/03 01:24:14;;;;;;;5.50;1.77;;;18.70;99.90;;;;;;5062089;28;20086;-84
2022/08/03 01:26:52;;;;;;;7.88;2.30;;;18.80;99.90;;;;;;5046871;28;20052;-85
2022/08/03 01:29:46;;;;;;;9.38;3.35;;;18.70;99.90;;;;;;5066438;28;20039;-77
2022/08/03 01:32:17;;;;;;;11.15;3.17;;;18.70;99.90;;;;;;5043331;28;20131;-84
2022/08/03 01:34:50;;;;;;;5.30;1.92;;;18.80;99.90;;;;;;5082647;28;20036;-84
2022/08/03 01:37:23;;;;;;;10.85;2.10;;;18.60;99.90;;;;;;5076929;28;20060;-85
2022/08/03 01:39:53;;;;;;;7.82;2.75;;;18.60;99.90;;;;;;5056085;28;20089;-85
2022/08/03 01:42:20;;;;;;;7.30;1.88;;;18.60;99.90;;;;;;5052283;28;20347;-81
2022/08/03 01:44:47;;;;;;;17.38;2.53;;;18.80;99.90;;;;;;5081278;28;20048;-84
2022/08/03 01:47:18;;;;;;;7.07;2.20;;;18.70;99.90;;;;;;5083225;28;20406;-85
2022/08/03 01:49:45;;;;;;;9.52;2.08;;;18.60;99.90;;;;;;5065740;22;20049;-71
2022/08/03 01:52:15;;;;;;;14.82;2.13;;;18.80;99.90;;;;;;5022991;28;20054;-72
2022/08/03 01:54:44;;;;;;;7.85;1.75;;;18.60;99.90;;;;;;5022558;28;20049;-72
2022/08/03 01:57:10;;;;;;;5.93;1.90;;;18.60;99.90;;;;;;5024121;28;20463;-72
2022/08/03 01:59:37;;;;;;;8.25;2.53;;;18.60;99.90;;;;;;5023554;28;20470;-72
2022/08/03 02:02:04;;;;;;;7.28;3.25;;;18.60;99.90;;;;;;5024748;28;20041;-72
2022/08/03 02:04:31;;;;;;;9.25;2.92;;;18.40;99.90;;;;;;5012854;28;20066;-72
2022/08/03 02:06:58;;;;;;;9.15;2.33;;;18.50;99.90;;;;;;5024031;28;20076;-72
2022/08/03 02:09:25;;;;;;;6.68;1.95;;;18.70;99.90;;;;;;5020227;28;20033;-72
2022/08/03 02:11:53;;;;;;;8.07;2.00;;;18.50;99.90;;;;;;5020844;28;20081;-72
2022/08/03 02:14:21;;;;;;;9.40;2.60;;;18.40;99.90;;;;;;5024029;28;20084;-72
2022/08/03 02:16:49;;;;;;;9.95;2.65;;;18.60;99.90;;;;;;5022316;28;20049;-71
2022/08/03 02:19:16;;;;;;;18.17;3.13;;;18.30;99.90;;;;;;5024496;28;20046;-71
2022/08/03 02:21:45;;;;;;;9.75;2.53;;;18.20;99.90;;;;;;5021817;28;20050;-71
2022/08/03 02:24:11;;;;;;;4.55;1.73;;;18.40;99.90;;;;;;5021898;28;20824;-71
2022/08/03 02:26:40;;;;;;;7.28;1.70;;;18.40;99.90;;;;;;5023119;28;20158;-71
2022/08/03 02:29:12;;;;;;;7.60;1.73;;;18.30;99.90;;;;;;5020221;28;20049;-72
2022/08/03 02:31:39;;;;;;;6.25;2.28;;;18.40;99.90;;;;;;5022952;28;20158;-71
2022/08/03 02:34:11;;;;;;;14.52;3.13;;;18.40;99.90;;;;;;5014052;28;20038;-71
2022/08/03 02:36:39;;;;;;;5.55;1.55;;;18.30;99.90;;;;;;5021353;28;20049;-71
2022/08/03 02:39:09;;;;;;;6.55;2.28;;;18.40;99.90;;;;;;5024071;28;20060;-71
2022/08/03 02:41:40;;;;;;;10.60;3.92;;;18.50;99.90;;;;;;5022790;28;20091;-71
2022/08/03 02:44:11;;;;;;;8.85;2.13;;;18.30;99.90;;;;;;5023515;28;20368;-71
2022/08/03 02:46:37;;;;;;;;;;;18.30;99.90;;;;;;5017981;28;20456;-71
2022/08/03 02:49:04;;;;;;;7.03;1.65;;;18.40;99.90;;;;;;5017289;28;20237;-71
2022/08/03 02:51:33;;;;;;;12.57;2.28;;;18.40;99.90;;;;;;5020007;28;20056;-71
2022/08/03 02:54:02;;;;;;;10.55;3.05;;;18.50;99.90;;;;;;5018873;28;20529;-70
2022/08/03 02:56:29;;;;;;;6.57;2.38;;;18.40;99.90;;;;;;5019088;28;20082;-70
2022/08/03 02:58:57;;;;;;;8.88;2.42;;;18.50;99.90;;;;;;5020270;28;20046;-73
2022/08/03 03:01:25;;;;;;;7.65;2.00;;;18.30;99.90;;;;;;5016591;28;20045;-70
2022/08/03 03:03:52;;;;;;;6.35;2.42;;;18.30;99.90;;;;;;5023132;28;20506;-71
2022/08/03 03:06:19;;;;;;;4.78;1.70;;;18.50;99.90;;;;;;5022423;28;20420;-71
2022/08/03 03:08:45;;;;;;;6.80;2.88;;;18.20;99.90;;;;;;5018538;28;20574;-71
2022/08/03 03:11:13;;;;;;;9.93;2.53;;;18.30;99.90;;;;;;5016310;28;20488;-71
2022/08/03 03:13:41;;;;;;;14.00;3.75;;;18.30;99.90;;;;;;5024451;28;20060;-71
2022/08/03 03:16:08;;;;;;;16.55;3.00;;;18.40;99.90;;;;;;5021142;28;20413;-71
2022/08/03 03:18:35;;;;;;;13.45;2.53;;;18.40;99.90;;;;;;5021088;28;20045;-71
2022/08/03 03:21:02;;;;;;;12.23;2.88;;;18.10;99.90;;;;;;5021838;28;20080;-71
2022/08/03 03:23:29;;;;;;;5.85;2.75;;;18.30;99.90;;;;;;5020684;28;20075;-71
2022/08/03 03:25:57;;;;;;;17.65;3.45;;;18.10;99.90;;;;;;5022109;28;20085;-71
2022/08/03 03:28:23;;;;;;;10.00;3.15;;;18.10;99.90;;;;;;5021669;28;20053;-70
2022/08/03 03:30:49;;;;;;;8.02;2.40;;;18.00;99.90;;;;;;5023879;28;20403;-72
2022/08/03 03:33:16;;;;;;;6.63;2.30;;;18.20;99.90;;;;;;5023730;28;20044;-71
2022/08/03 03:35:44;;;;;;;7.65;2.13;;;18.00;99.90;;;;;;5023177;28;20050;-71
2022/08/03 03:38:10;;;;;;;12.38;3.03;;;18.30;99.90;;;;;;5020370;28;20073;-71
2022/08/03 03:40:37;;;;;;;9.13;2.95;;;18.30;99.90;;;;;;5021176;28;20556;-71
2022/08/03 03:43:07;;;;;;;9.40;2.92;;;18.30;99.90;;;;;;5022777;28;20041;-71
2022/08/03 03:45:34;;;;;;;19.55;4.32;;;18.20;99.90;;;;;;5023154;28;20138;-70
2022/08/03 03:48:06;;;;;;;13.02;3.58;;;18.10;99.90;;;;;;5016452;28;20496;-71
2022/08/03 03:50:33;;;;;;;4.57;3.08;;;18.10;99.90;;;;;;5022988;28;20046;-71
2022/08/03 03:53:00;;;;;;;14.32;3.15;;;18.00;99.90;;;;;;5037602;28;20451;-71
2022/08/03 03:55:26;;;;;;;7.50;2.67;;;18.00;99.90;;;;;;5020480;28;20046;-71
2022/08/03 03:57:51;;;;;;;8.52;3.17;;;18.10;99.90;;;;;;5020695;28;20041;-72
2022/08/03 04:00:18;;;;;;;10.75;2.95;;;17.90;99.90;;;;;;5023415;28;20488;-71
2022/08/03 04:02:44;;;;;;;11.55;2.80;;;18.10;99.90;;;;;;5039770;28;20045;-72
2022/08/03 04:11:04;;;;;;;9.00;2.42;;;18.30;99.90;;;;;;5025998;28;20052;-72
2022/08/03 04:13:35;;;;;;;9.02;3.10;;;18.00;99.90;;;;;;5024504;28;20053;-72
2022/08/03 04:16:03;;;;;;;8.88;2.80;;;17.90;99.90;;;;;;5025151;28;20049;-72
2022/08/03 04:18:31;;;;;;;10.10;4.07;;;18.20;99.90;;;;;;5040552;28;20077;-73
2022/08/03 04:21:03;;;;;;;20.88;4.70;;;18.20;99.90;;;;;;5022685;28;20041;-71
2022/08/03 04:23:31;;;;;;;10.68;2.83;;;17.90;99.90;;;;;;5022775;28;20388;-71
2022/08/03 04:25:59;;;;;;;8.07;3.00;;;18.00;99.90;;;;;;5022583;28;20045;-72
2022/08/03 04:28:27;;;;;;;11.63;2.75;;;18.20;99.90;;;;;;5026827;28;20109;-71
2022/08/03 04:30:55;;;;;;;12.75;3.95;;;17.90;99.90;;;;;;5025456;28;20128;-71
2022/08/03 04:33:23;;;;;;;10.77;3.08;;;17.90;99.90;;;;;;5027093;28;20045;-71
2022/08/03 04:35:54;;;;;;;11.65;3.30;;;18.20;99.90;;;;;;5025204;28;20458;-71
2022/08/03 04:38:22;;;;;;;7.25;2.75;;;18.20;99.90;;;;;;5024925;28;20049;-71
2022/08/03 04:40:47;;;;;;;7.57;2.53;;;18.20;99.90;;;;;;5025291;28;20049;-71
2022/08/03 04:43:17;;;;;;;10.60;3.88;;;18.00;99.90;;;;;;5025587;28;20061;-71
2022/08/03 04:45:45;;;;;;;9.97;3.80;;;18.30;99.90;;;;;;5024587;28;20038;-71
2022/08/03 04:48:13;;;;;;;12.85;2.72;;;18.30;99.90;;;;;;5026187;28;20377;-70
2022/08/03 04:50:40;;;;;;;11.95;3.53;;;18.20;99.90;;;;;;5025800;28;20061;-70
2022/08/03 04:53:06;;;;;;;13.18;3.85;;;18.20;99.90;;;;;;5020081;28;20041;-71
2022/08/03 04:55:33;;;;;;;18.17;3.83;;;18.50;99.90;;;;;;5016320;28;20037;-71
2022/08/03 04:58:01;;;;;;;9.23;3.08;;;18.40;99.90;;;;;;5023981;28;20052;-70
2022/08/03 05:00:27;;;;;;;15.90;3.47;;;18.40;99.90;;;;;;5023987;28;20061;-70
2022/08/03 05:02:54;;;;;;;11.63;3.28;;;18.30;99.90;;;;;;5024886;28;20438;-70
2022/08/03 05:05:20;;;;;;;15.77;3.70;;;18.60;99.90;;;;;;5021422;28;20511;-71
2022/08/03 05:07:46;;;;;;;28.25;4.45;;;18.20;99.90;;;;;;5023894;28;20048;-71
2022/08/03 05:10:13;;;;;;;14.02;3.67;;;18.50;99.90;;;;;;5024194;28;20553;-71
2022/08/03 05:12:39;;;;;;;7.38;2.90;;;18.30;99.90;;;;;;5026188;28;20747;-71
2022/08/03 05:15:05;;;;;;;11.48;3.28;;;18.40;99.90;;;;;;5020240;28;20042;-73
2022/08/03 05:17:32;;;;;;;11.73;3.40;;;18.50;99.90;;;;;;5023877;28;20494;-70
2022/08/03 05:19:59;;;;;;;9.60;3.00;;;18.50;99.90;;;;;;5023081;28;20046;-70
2022/08/03 05:22:25;;;;;;;12.98;2.75;;;18.70;99.90;;;;;;5023808;28;20040;-71
2022/08/03 05:24:51;;;;;;;14.57;2.92;;;18.70;99.90;;;;;;5023620;28;20037;-71
2022/08/03 05:27:18;;;;;;;10.02;2.35;;;18.80;99.90;;;;;;5025209;28;20076;-71
2022/08/03 05:29:48;;;;;;;15.95;3.35;;;18.70;99.90;;;;;;5025199;28;20046;-71
2022/08/03 05:32:15;;;;;;;14.48;3.85;;;18.60;99.90;;;;;;5026376;28;20048;-71
2022/08/03 05:34:41;;;;;;;14.70;3.35;;;18.80;99.90;;;;;;5025416;28;20051;-71
2022/08/03 05:37:07;;;;;;;17.42;3.45;;;18.90;99.90;;;;;;5023543;28;20495;-71
2022/08/03 05:39:34;;;;;;;10.52;3.63;;;18.60;99.90;;;;;;5024493;28;20158;-71
2022/08/03 05:42:00;;;;;;;16.02;4.50;;;18.80;99.90;;;;;;5023672;28;20041;-71
2022/08/03 05:44:26;;;;;;;8.43;2.72;;;19.00;99.90;;;;;;5025662;28;20064;-71
2022/08/03 05:46:51;;;;;;;9.02;2.63;;;19.10;99.90;;;;;;5024342;28;20038;-70
2022/08/03 05:49:18;;;;;;;9.75;2.97;;;18.90;99.90;;;;;;5024814;28;20422;-70
2022/08/03 05:51:44;;;;;;;11.43;2.88;;;18.80;99.90;;;;;;5024747;28;20120;-70
2022/08/03 05:54:10;;;;;;;10.20;2.72;;;19.10;99.90;;;;;;5020714;28;20103;-70
2022/08/03 05:56:36;;;;;;;9.73;2.67;;;19.30;99.90;;;;;;5012449;28;20053;-70
2022/08/03 05:59:02;;;;;;;14.60;3.95;;;19.20;99.90;;;;;;5009416;28;20581;-71
2022/08/03 06:01:28;;;;;;;12.70;4.60;;;19.40;99.90;;;;;;5022352;28;20045;-71
2022/08/03 06:03:54;;;;;;;11.90;3.95;;;19.20;99.90;;;;;;5023731;28;20513;-71
2022/08/03 06:06:20;;;;;;;11.00;3.20;;;19.20;99.90;;;;;;5024016;28;20128;-71
2022/08/03 06:08:47;;;;;;;13.38;4.35;;;19.30;99.90;;;;;;5023783;28;20083;-71
2022/08/03 06:11:13;;;;;;;8.18;2.60;;;19.50;99.90;;;;;;5023064;28;20146;-71
2022/08/03 06:13:39;;;;;;;28.98;4.30;;;19.30;99.90;;;;;;5023244;28;20112;-71
2022/08/03 06:16:05;;;;;;;14.18;3.25;;;19.50;99.90;;;;;;5024671;28;20411;-71
2022/08/03 06:18:32;;;;;;;15.10;3.50;;;19.50;99.90;;;;;;5022836;28;20041;-71
2022/08/03 06:20:58;;;;;;;21.65;5.60;;;19.40;99.90;;;;;;5023151;28;20065;-71
2022/08/03 06:23:23;;;;;;;11.73;3.50;;;19.60;99.90;;;;;;5022821;28;20037;-71
2022/08/03 06:25:49;;;;;;;21.20;4.38;;;19.60;99.90;;;;;;5040194;28;20061;-70
2022/08/03 06:28:15;;;;;;;10.95;2.85;;;19.80;99.90;;;;;;5023685;28;20476;-71
2022/08/03 06:30:40;;;;;;;11.38;3.92;;;19.90;99.90;;;;;;5022822;28;20408;-71
2022/08/03 06:33:06;;;;;;;12.10;4.28;;;19.70;99.90;;;;;;5017382;28;20050;-71
2022/08/03 06:35:32;;;;;;;11.90;3.63;;;19.70;99.90;;;;;;5016772;28;20124;-71
2022/08/03 06:37:58;;;;;;;11.40;3.70;;;19.80;99.90;;;;;;5022396;28;20103;-72
2022/08/03 06:40:33;;;;;;;22.10;5.13;;;19.80;99.90;;;;;;5024410;28;20041;-71
2022/08/03 06:43:01;;;;;;;22.73;4.07;;;20.10;99.90;;;;;;5025631;28;20415;-71
2022/08/03 06:45:28;;;;;;;12.60;3.33;;;20.20;99.90;;;;;;5022910;28;20037;-71
2022/08/03 06:48:05;;;;;;;13.60;3.60;;;20.20;99.90;;;;;;5015854;28;20096;-70
2022/08/03 06:50:31;;;;;;;13.25;3.70;;;20.10;99.90;;;;;;5017010;28;20052;-69
2022/08/03 06:52:57;;;;;;;14.70;6.07;;;20.20;99.90;;;;;;5023370;28;20073;-71
2022/08/03 06:55:23;;;;;;;15.93;3.33;;;20.40;99.90;;;;;;5023898;28;20171;-70
2022/08/03 06:57:49;;;;;;;19.02;4.95;;;20.60;99.90;;;;;;5023304;28;20041;-71
2022/08/03 07:00:15;;;;;;;16.83;3.78;;;20.60;99.90;;;;;;5022405;28;20408;-71
2022/08/03 07:02:41;;;;;;;16.23;5.40;;;20.70;99.90;;;;;;5018091;28;20041;-71
2022/08/03 07:05:08;;;;;;;11.68;5.57;;;20.40;99.90;;;;;;5020562;28;20049;-72
2022/08/03 07:07:33;;;;;;;16.67;4.68;;;20.80;99.90;;;;;;5023339;28;20061;-73
2022/08/03 07:09:59;;;;;;;10.02;4.50;;;20.50;99.90;;;;;;5021425;28;20045;-72
2022/08/03 07:12:29;;;;;;;9.57;4.60;;;20.80;99.90;;;;;;5039802;28;20045;-71
2022/08/03 07:14:55;;;;;;;19.58;4.35;;;21.80;99.90;;;;;;5022088;28;20037;-71
2022/08/03 07:17:22;;;;;;;16.00;3.72;;;23.20;99.90;;;;;;5021545;28;20053;-72
2022/08/03 07:19:47;;;;;;;21.70;4.50;;;23.90;99.90;;;;;;5021524;28;20037;-72
2022/08/03 07:22:13;;;;;;;11.45;4.30;;;24.50;99.90;;;;;;5022859;28;20088;-71
2022/08/03 07:24:40;;;;;;;14.52;4.20;;;25.00;99.90;;;;;;5022637;28;20172;-71
2022/08/03 07:27:07;;;;;;;10.15;4.63;;;24.20;99.90;;;;;;5022866;28;20041;-72
2022/08/03 07:29:33;;;;;;;12.00;3.58;;;24.50;99.90;;;;;;5022061;28;20527;-71
2022/08/03 07:31:59;;;;;;;17.70;3.97;;;25.40;99.90;;;;;;5011122;28;20341;-72
2022/08/03 07:34:25;;;;;;;14.43;5.03;;;26.20;99.90;;;;;;5018913;28;20052;-72
2022/08/03 07:36:50;;;;;;;14.85;4.85;;;25.90;99.90;;;;;;5019445;28;20547;-72
2022/08/03 07:39:16;;;;;;;12.50;3.80;;;25.80;99.90;;;;;;5011372;28;20074;-72
2022/08/03 07:41:42;;;;;;;15.88;5.03;;;24.90;99.90;;;;;;5023577;28;20064;-72
2022/08/03 07:44:07;;;;;;;10.40;4.80;;;24.30;99.90;;;;;;5026112;28;20056;-71
2022/08/03 07:46:33;;;;;;;19.38;4.03;;;23.80;99.90;;;;;;5024868;28;20037;-72
2022/08/03 07:48:59;;;;;;;9.90;4.25;;;23.50;99.90;;;;;;5024963;28;20046;-72
2022/08/03 07:51:24;;;;;;;13.25;4.40;;;23.20;99.90;;;;;;5018463;28;20041;-73
2022/08/03 07:53:50;;;;;;;10.70;4.10;;;23.40;99.90;;;;;;5026375;28;20037;-74
2022/08/03 07:56:16;;;;;;;11.63;4.38;;;23.60;99.90;;;;;;5027237;28;20071;-74
2022/08/03 07:58:41;;;;;;;13.35;5.00;;;23.20;99.90;;;;;;5024788;28;20499;-73
2022/08/03 08:01:07;;;;;;;20.90;7.10;;;22.90;99.90;;;;;;5023167;28;20037;-74
2022/08/03 08:03:33;;;;;;;18.70;4.18;;;22.90;99.90;;;;;;5025920;28;20045;-72
2022/08/03 08:05:58;;;;;;;17.25;5.47;;;23.00;99.90;;;;;;5023398;28;20068;-74
2022/08/03 08:08:24;;;;;;;14.00;5.43;;;23.30;99.90;;;;;;5027428;28;20072;-73
2022/08/03 08:10:50;;;;;;;13.55;3.90;;;23.30;99.90;;;;;;5025663;28;20423;-71
2022/08/03 08:13:15;;;;;;;26.02;7.50;;;23.20;99.90;;;;;;5026472;28;20115;-73
2022/08/03 08:15:41;;;;;;;13.43;3.70;;;23.40;99.90;;;;;;5019614;28;20123;-73
2022/08/03 08:18:07;;;;;;;12.13;4.70;;;23.50;99.90;;;;;;5025352;28;20037;-72
2022/08/03 08:20:36;;;;;;;10.02;4.72;;;23.60;99.90;;;;;;5023667;28;20029;-72
2022/08/03 08:23:05;;;;;;;12.23;4.13;;;23.70;99.90;;;;;;5024549;28;20060;-72
2022/08/03 08:25:31;;;;;;;15.07;5.63;;;23.50;99.90;;;;;;5026930;28;20040;-72
2022/08/03 08:28:00;;;;;;;14.95;5.78;;;23.10;99.90;;;;;;5025346;28;20050;-72
2022/08/03 08:30:26;;;;;;;18.95;6.57;;;22.80;99.90;;;;;;5024227;28;20053;-72
2022/08/03 08:32:52;;;;;;;12.48;4.65;;;22.70;99.90;;;;;;5026541;28;20136;-72
2022/08/03 08:35:18;;;;;;;12.90;6.28;;;23.00;99.90;;;;;;5025268;28;20385;-74
2022/08/03 08:37:45;;;;;;;13.32;7.38;;;23.20;99.90;;;;;;5025350;28;20041;-73
2022/08/03 08:40:12;;;;;;;13.32;7.32;;;23.00;99.90;;;;;;5024440;28;20408;-74
2022/08/03 08:42:39;;;;;;;20.65;7.90;;;22.70;99.90;;;;;;5026708;28;20087;-76
2022/08/03 08:45:07;;;;;;;12.40;6.30;;;22.80;99.90;;;;;;5016767;28;20049;-72
2022/08/03 08:47:35;;;;;;;14.25;5.47;;;23.00;99.90;;;;;;5016940;28;20416;-70
2022/08/03 08:50:02;;;;;;;12.38;7.13;;;23.60;99.90;;;;;;5025701;28;20496;-70
2022/08/03 08:52:29;;;;;;;24.08;7.72;;;23.70;99.90;;;;;;5024866;28;20097;-70
2022/08/03 08:55:02;;;;;;;12.02;6.95;;;23.90;99.90;;;;;;5022487;28;20037;-71
2022/08/03 08:57:36;;;;;;;21.83;7.18;;;24.00;99.90;;;;;;5026748;28;20054;-71
2022/08/03 09:00:09;;;;;;;14.73;6.57;;;24.00;99.90;;;;;;5024026;28;20037;-70
2022/08/03 09:02:34;;;;;;;21.23;6.75;;;24.10;99.90;;;;;;5020098;28;20047;-70
2022/08/03 09:05:01;;;;;;;20.48;6.85;;;23.80;99.90;;;;;;5023392;28;20466;-70
2022/08/03 09:07:27;;;;;;;14.98;6.32;;;23.90;99.90;;;;;;5024325;28;20308;-71
2022/08/03 09:09:53;;;;;;;14.93;6.22;;;24.20;99.90;;;;;;5020764;28;20388;-72
2022/08/03 09:12:19;;;;;;;16.30;7.18;;;24.50;99.90;;;;;;5024092;28;20103;-73
2022/08/03 09:14:45;;;;;;;17.27;6.90;;;24.60;99.90;;;;;;5025958;28;20029;-72
2022/08/03 09:17:10;;;;;;;19.13;6.72;;;24.10;99.90;;;;;;5025812;28;20049;-71
2022/08/03 09:19:36;;;;;;;14.85;6.68;;;24.30;99.90;;;;;;5025680;28;20069;-70
2022/08/03 09:22:13;;;;;;;16.45;6.18;;;24.30;99.90;;;;;;5024584;28;20132;-71
2022/08/03 09:25:10;;;;;;;17.58;8.32;;;24.00;99.90;;;;;;5022808;28;20121;-72
2022/08/03 09:27:45;;;;;;;16.10;6.18;;;23.70;99.90;;;;;;5026038;28;20044;-70
2022/08/03 09:30:16;;;;;;;16.38;6.15;;;23.80;99.90;;;;;;5024001;28;20598;-70
2022/08/03 09:32:44;;;;;;;10.25;5.18;;;24.00;99.90;;;;;;5025766;28;20053;-71
2022/08/03 09:35:12;;;;;;;17.65;6.82;;;24.30;99.90;;;;;;5023173;28;20325;-73
2022/08/03 09:37:38;;;;;;;13.45;5.57;;;24.40;99.90;;;;;;5022228;28;20522;-72
2022/08/03 09:40:04;;;;;;;20.70;6.22;;;24.50;99.90;;;;;;5024059;28;20053;-70
2022/08/03 09:42:30;;;;;;;15.88;6.68;;;24.40;99.90;;;;;;5025847;28;20034;-72
2022/08/03 09:44:56;;;;;;;16.80;5.30;;;24.50;99.90;;;;;;5023477;28;20076;-72
2022/08/03 09:47:33;;;;;;;21.45;7.53;;;24.50;99.90;;;;;;5025050;28;20038;-72
2022/08/03 09:50:08;;;;;;;12.70;5.18;;;24.40;99.90;;;;;;5024832;28;20088;-72
2022/08/03 09:52:38;;;;;;;12.50;5.00;;;24.50;99.90;;;;;;5021888;28;20050;-73
2022/08/03 09:55:10;;;;;;;18.13;6.53;;;24.50;99.90;;;;;;5020863;28;20041;-72
2022/08/03 09:57:35;;;;;;;10.77;5.70;;;24.60;99.90;;;;;;5026202;28;20053;-72
2022/08/03 10:00:13;;;;;;;11.48;4.85;;;24.90;99.90;;;;;;5025213;28;20034;-72
2022/08/03 10:02:41;;;;;;;15.82;6.88;;;25.10;99.90;;;;;;5024852;28;20080;-72
2022/08/03 10:05:09;;;;;;;18.55;8.52;;;25.20;99.90;;;;;;5023650;28;20060;-72
2022/08/03 10:07:46;;;;;;;16.50;6.20;;;25.30;99.90;;;;;;5018498;28;20034;-73
2022/08/03 10:10:13;;;;;;;15.88;6.85;;;25.40;99.90;;;;;;5021015;28;20044;-71
2022/08/03 10:12:40;;;;;;;17.05;7.55;;;25.20;99.90;;;;;;5041050;28;20144;-71
2022/08/03 10:15:07;;;;;;;19.55;7.80;;;25.40;99.90;;;;;;5039386;28;20045;-71
2022/08/03 10:17:33;;;;;;;20.17;9.45;;;25.10;99.90;;;;;;5024641;28;20346;-71
2022/08/03 10:19:59;;;;;;;20.17;9.23;;;25.20;99.90;;;;;;5024023;28;20037;-70
2022/08/03 10:22:28;;;;;;;24.88;10.40;;;25.00;99.90;;;;;;5018485;28;20050;-71
2022/08/03 10:25:05;;;;;;;24.63;9.05;;;25.00;99.90;;;;;;5022945;28;20044;-71
2022/08/03 10:27:35;;;;;;;21.85;8.32;;;25.30;99.90;;;;;;5005754;28;20053;-70
2022/08/03 10:30:04;;;;;;;32.97;10.77;;;25.60;99.90;;;;;;5018900;28;20037;-71
2022/08/03 10:32:47;;;;;;;20.30;8.60;;;25.60;99.90;;;;;;5024164;28;20492;-71
2022/08/03 10:35:19;;;;;;;21.95;9.13;;;25.90;99.90;;;;;;5023546;28;20045;-71
2022/08/03 10:37:56;;;;;;;31.90;9.13;;;25.80;99.90;;;;;;5023085;28;20049;-70
2022/08/03 10:40:23;;;;;;;18.40;7.63;;;25.70;99.90;;;;;;5004599;28;20484;-72
2022/08/03 10:42:52;;;;;;;22.98;8.38;;;26.00;99.90;;;;;;5024415;28;20046;-74
2022/08/03 10:45:24;;;;;;;15.50;7.07;;;26.00;99.90;;;;;;5024886;28;20091;-72
2022/08/03 10:47:51;;;;;;;18.15;6.95;;;26.00;99.90;;;;;;5023915;28;20488;-72
2022/08/03 10:50:18;;;;;;;17.75;7.35;;;25.80;99.90;;;;;;5023934;28;20052;-73
2022/08/03 10:53:32;;;;;;;26.10;10.10;;;25.70;99.90;;;;;;5023649;28;20139;-72
2022/08/03 10:58:46;;;;;;;15.82;7.20;;;25.60;99.90;;;;;;5024004;28;20053;-72
2022/08/03 11:01:12;;;;;;;33.58;8.07;;;25.30;99.90;;;;;;5024104;28;20037;-73
2022/08/03 11:03:56;;;;;;;22.27;7.60;;;25.40;99.90;;;;;;5023848;28;20077;-71
2022/08/03 11:06:24;;;;;;;25.48;6.35;;;25.30;99.90;;;;;;5020545;28;20439;-72
2022/08/03 11:09:08;;;;;;;15.25;7.28;;;25.20;99.90;;;;;;5023690;28;20047;-71
2022/08/03 11:11:35;;;;;;;18.63;8.18;;;25.20;99.90;;;;;;5021859;28;20041;-71
2022/08/03 11:14:06;;;;;;;24.52;7.85;;;25.40;99.90;;;;;;5023042;28;20056;-71
2022/08/03 11:16:41;;;;;;;23.25;6.70;;;25.50;99.90;;;;;;5024860;28;20148;-71
2022/08/03 11:19:09;;;;;;;18.42;8.70;;;25.70;99.90;;;;;;5030112;28;20277;-71
2022/08/03 11:21:47;;;;;;;23.35;9.40;;;25.70;99.90;;;;;;5028798;28;20103;-71
2022/08/03 11:24:53;;;;;;;17.77;7.40;;;25.80;99.90;;;;;;5028463;28;20128;-70
2022/08/03 11:27:25;;;;;;;22.83;7.00;;;25.90;99.90;;;;;;5041827;28;20341;-73
2022/08/03 11:30:01;;;;;;;22.10;8.25;;;26.10;99.90;;;;;;5032216;28;20073;-72
2022/08/03 11:32:39;;;;;;;21.95;8.63;;;26.10;99.90;;;;;;5029667;28;20045;-71
2022/08/03 11:35:16;;;;;;;20.23;7.93;;;25.80;99.90;;;;;;5029863;28;20472;-71
2022/08/03 11:37:56;;;;;;;14.93;7.15;;;26.00;99.90;;;;;;5016499;28;20033;-71
2022/08/03 11:40:48;;;;;;;26.90;8.93;;;26.20;99.90;;;;;;5028676;28;20060;-71
2022/08/03 11:43:29;;;;;;;16.77;6.70;;;26.10;99.90;;;;;;5030686;28;20638;-72
2022/08/03 11:46:03;;;;;;;19.17;5.95;;;26.10;99.90;;;;;;5029935;28;20049;-72
2022/08/03 11:48:43;;;;;;;20.52;7.07;;;26.30;99.90;;;;;;5029987;28;20284;-72
2022/08/03 11:51:39;;;;;;;21.33;6.28;;;26.30;99.90;;;;;;5023287;28;20148;-71
2022/08/03 11:54:05;;;;;;;19.10;5.45;;;26.30;99.90;;;;;;5034125;28;20051;-71
2022/08/03 11:56:46;;;;;;;22.67;7.55;;;26.40;99.90;;;;;;5026311;28;20041;-72
2022/08/03 11:59:11;;;;;;;18.63;6.75;;;26.70;99.90;;;;;;5029808;28;20048;-72
2022/08/03 12:01:38;;;;;;;20.02;6.35;;;26.70;99.90;;;;;;5028610;28;20049;-72
2022/08/03 12:04:05;;;;;;;21.42;7.65;;;26.80;99.90;;;;;;5030137;28;20049;-72
2022/08/03 12:06:53;;;;;;;17.55;6.35;;;27.00;99.90;;;;;;5025496;28;20049;-72
2022/08/03 12:09:16;;;;;;;27.40;6.57;;;26.90;99.90;;;;;;5016885;28;20520;-73
2022/08/03 12:11:42;;;;;;;21.45;6.95;;;26.90;99.90;;;;;;5030298;28;20046;-72
2022/08/03 12:14:15;;;;;;;24.35;6.15;;;26.80;99.90;;;;;;5030703;28;20037;-73
2022/08/03 12:16:46;;;;;;;22.27;6.15;;;26.90;99.90;;;;;;5030559;28;20080;-71
2022/08/03 12:19:12;;;;;;;15.95;5.50;;;26.80;99.90;;;;;;5025104;28;20038;-71
2022/08/03 12:21:47;;;;;;;20.65;6.78;;;26.90;99.90;;;;;;5024175;28;20286;-71
2022/08/03 12:24:14;;;;;;;21.10;5.90;;;27.10;99.90;;;;;;5029707;28;20063;-71
2022/08/03 12:26:44;;;;;;;16.67;5.95;;;27.10;99.90;;;;;;5029277;28;20038;-71
2022/08/03 12:29:17;;;;;;;23.38;6.13;;;27.30;99.90;;;;;;5027303;28;20593;-72
2022/08/03 12:31:43;;;;;;;21.80;7.00;;;27.10;99.90;;;;;;5026577;28;20132;-72
2022/08/03 12:34:09;;;;;;;11.85;4.50;;;27.10;99.90;;;;;;5023728;28;20176;-72
2022/08/03 12:36:36;;;;;;;18.27;5.03;;;27.10;99.90;;;;;;5025595;28;20068;-71
2022/08/03 12:39:06;;;;;;;15.35;5.63;;;26.90;99.90;;;;;;5025545;28;20045;-71
2022/08/03 12:41:34;;;;;;;22.73;8.77;;;27.20;99.90;;;;;;5026041;28;20041;-72
2022/08/03 12:44:04;;;;;;;18.63;4.78;;;27.10;99.90;;;;;;5026445;28;20041;-71
2022/08/03 12:46:34;;;;;;;24.27;5.72;;;27.00;99.90;;;;;;5027068;28;20033;-71
2022/08/03 12:49:09;;;;;;;21.35;5.75;;;27.00;99.90;;;;;;5023091;28;20053;-71
2022/08/03 12:51:59;;;;;;;20.73;6.20;;;27.00;99.90;;;;;;5025455;28;20520;-72
2022/08/03 12:54:30;;;;;;;17.13;4.90;;;26.80;99.90;;;;;;5025569;28;20168;-71
2022/08/03 12:56:59;;;;;;;10.85;5.22;;;26.90;99.90;;;;;;5026851;28;20049;-71
2022/08/03 12:59:32;;;;;;;13.30;4.97;;;26.70;99.90;;;;;;5025345;28;20050;-71